KSEE/SEE METAR and TAF weather

Enter ICAO airport designator
Station Type Date Time Source
KSEE METAR 2021/05/12 02:15 UTC NOAA

KSEE 120215Z AUTO 25005KT 10SM CLR 18/12 A2992 RMK AO2


Station Type Date Time Source
KSEE Decoded METAR 2021/05/12 02:15 UTC NOAA

San Diego/El Cajon, Gillespie Field Airport, CA, United States (KSEE) 32-49-34N 116-58-20W
May 11, 2021 - 10:15 PM EDT / 2021.05.12 0215 UTC
Wind: from the WSW (250 degrees) at 6 MPH (5 KT):0
Visibility: 10 mile(s):0
Sky conditions: clear
Temperature: 64 F (18 C)
Dew Point: 53 F (12 C)
Relative Humidity: 67%
Pressure (altimeter): 29.92 in. Hg (1013 hPa)
ob: KSEE 120215Z AUTO 25005KT 10SM CLR 18/12 A2992 RMK AO2
cycle: 2

Station Type Date Time Source
KSEE TAF UTC NOAA

Error!

Example: see airport list